METAR Data
IDs: Format: Raw Decoded Include TAF

Data at: 1518 UTC 04 Aug 2021

KMKT 041456Z AUTO VRB03KT 10SM CLR 22/16 A3013 RMK AO2 SLP200 T02220161 50001